sensor_id;sensor_type;location;lat;lon;timestamp;pressure;altitude;pressure_sealevel;temperature;humidity
35704;BME280;21820;51.112;13.762;2023-07-16T00:02:23;98818.09;;;27.00;54.14
35704;BME280;21820;51.112;13.762;2023-07-16T00:04:48;98832.31;;;26.99;53.64
35704;BME280;21820;51.112;13.762;2023-07-16T00:07:13;98824.59;;;26.97;53.96
35704;BME280;21820;51.112;13.762;2023-07-16T00:09:39;98832.94;;;27.01;54.00
35704;BME280;21820;51.112;13.762;2023-07-16T00:12:04;98834.69;;;26.93;54.29
35704;BME280;21820;51.112;13.762;2023-07-16T00:14:30;98843.31;;;26.60;50.55
35704;BME280;21820;51.112;13.762;2023-07-16T00:16:55;98859.22;;;26.45;50.45
35704;BME280;21820;51.112;13.762;2023-07-16T00:19:21;98874.78;;;26.40;49.80
35704;BME280;21820;51.112;13.762;2023-07-16T00:21:46;98909.13;;;26.68;53.32
35704;BME280;21820;51.112;13.762;2023-07-16T00:24:11;99009.13;;;26.84;53.02
35704;BME280;21820;51.112;13.762;2023-07-16T00:26:37;99013.47;;;26.91;53.04
35704;BME280;21820;51.112;13.762;2023-07-16T00:29:02;99006.81;;;26.96;53.58
35704;BME280;21820;51.112;13.762;2023-07-16T00:31:27;99032.81;;;26.99;53.45
35704;BME280;21820;51.112;13.762;2023-07-16T00:33:53;99030.97;;;26.99;54.08
35704;BME280;21820;51.112;13.762;2023-07-16T00:36:18;99041.38;;;27.01;53.93
35704;BME280;21820;51.112;13.762;2023-07-16T00:38:44;99066.75;;;27.02;54.23
35704;BME280;21820;51.112;13.762;2023-07-16T00:41:13;99066.75;;;27.02;53.89
35704;BME280;21820;51.112;13.762;2023-07-16T00:43:38;99065.72;;;27.03;53.65
35704;BME280;21820;51.112;13.762;2023-07-16T00:46:03;99072.66;;;27.04;53.96
35704;BME280;21820;51.112;13.762;2023-07-16T00:48:29;99092.13;;;27.03;53.91
35704;BME280;21820;51.112;13.762;2023-07-16T00:50:55;99092.56;;;26.70;50.44
35704;BME280;21820;51.112;13.762;2023-07-16T00:53:21;99095.47;;;26.46;49.93
35704;BME280;21820;51.112;13.762;2023-07-16T00:55:47;99093.84;;;26.45;49.18
35704;BME280;21820;51.112;13.762;2023-07-16T00:58:12;99077.00;;;26.61;53.00
35704;BME280;21820;51.112;13.762;2023-07-16T01:00:39;99090.09;;;26.83;53.65
35704;BME280;21820;51.112;13.762;2023-07-16T01:03:13;99101.81;;;26.96;53.67
35704;BME280;21820;51.112;13.762;2023-07-16T01:05:55;99097.78;;;27.00;53.98
35704;BME280;21820;51.112;13.762;2023-07-16T01:08:35;99095.75;;;27.02;54.47
35704;BME280;21820;51.112;13.762;2023-07-16T01:11:03;99095.75;;;27.02;53.69
35704;BME280;21820;51.112;13.762;2023-07-16T01:13:29;99100.66;;;27.05;54.26
35704;BME280;21820;51.112;13.762;2023-07-16T01:15:55;99087.78;;;26.95;53.69
35704;BME280;21820;51.112;13.762;2023-07-16T01:18:21;99084.84;;;27.05;53.44
35704;BME280;21820;51.112;13.762;2023-07-16T01:20:46;99070.63;;;27.06;53.80
35704;BME280;21820;51.112;13.762;2023-07-16T01:30:58;99038.00;;;26.56;49.79
35704;BME280;21820;51.112;13.762;2023-07-16T01:33:24;99027.66;;;26.40;49.73
35704;BME280;21820;51.112;13.762;2023-07-16T01:35:51;99036.00;;;26.58;53.29
35704;BME280;21820;51.112;13.762;2023-07-16T01:38:16;99049.69;;;26.83;53.43
35704;BME280;21820;51.112;13.762;2023-07-16T01:40:44;99044.09;;;26.92;53.87
35704;BME280;21820;51.112;13.762;2023-07-16T01:43:09;98999.50;;;26.98;53.52
35704;BME280;21820;51.112;13.762;2023-07-16T01:45:35;98985.78;;;27.02;54.02
35704;BME280;21820;51.112;13.762;2023-07-16T01:48:05;98991.84;;;27.03;53.83
35704;BME280;21820;51.112;13.762;2023-07-16T01:50:37;99013.78;;;27.03;53.86
35704;BME280;21820;51.112;13.762;2023-07-16T01:53:02;99012.69;;;26.98;53.44
35704;BME280;21820;51.112;13.762;2023-07-16T01:55:27;99037.16;;;27.06;54.07
35704;BME280;21820;51.112;13.762;2023-07-16T01:57:53;99043.25;;;27.07;53.79
35704;BME280;21820;51.112;13.762;2023-07-16T02:00:18;99058.06;;;27.08;54.22
35704;BME280;21820;51.112;13.762;2023-07-16T02:02:43;99043.38;;;26.99;54.17
35704;BME280;21820;51.112;13.762;2023-07-16T02:05:09;99052.53;;;27.03;52.36
35704;BME280;21820;51.112;13.762;2023-07-16T02:07:34;99059.72;;;26.58;50.04
35704;BME280;21820;51.112;13.762;2023-07-16T02:10:00;99036.03;;;26.44;49.63
35704;BME280;21820;51.112;13.762;2023-07-16T02:12:25;98991.66;;;26.47;53.57
35704;BME280;21820;51.112;13.762;2023-07-16T02:14:51;99026.13;;;26.81;53.36
35704;BME280;21820;51.112;13.762;2023-07-16T02:17:16;99036.19;;;26.92;53.10
35704;BME280;21820;51.112;13.762;2023-07-16T02:19:41;99045.38;;;26.97;53.22
35704;BME280;21820;51.112;13.762;2023-07-16T02:22:07;99055.38;;;27.01;53.69
35704;BME280;21820;51.112;13.762;2023-07-16T02:24:33;99067.38;;;27.04;53.84
35704;BME280;21820;51.112;13.762;2023-07-16T02:26:58;99095.19;;;27.06;53.65
35704;BME280;21820;51.112;13.762;2023-07-16T02:29:23;99102.13;;;27.07;54.16
35704;BME280;21820;51.112;13.762;2023-07-16T02:31:49;99109.03;;;27.08;54.13
35704;BME280;21820;51.112;13.762;2023-07-16T02:34:14;99114.13;;;27.10;53.88
35704;BME280;21820;51.112;13.762;2023-07-16T02:36:39;99086.84;;;27.03;53.46
35704;BME280;21820;51.112;13.762;2023-07-16T02:39:05;99103.56;;;27.10;53.61
35704;BME280;21820;51.112;13.762;2023-07-16T02:41:30;99115.13;;;27.09;54.08
35704;BME280;21820;51.112;13.762;2023-07-16T02:44:04;99135.56;;;26.71;51.54
35704;BME280;21820;51.112;13.762;2023-07-16T02:46:30;99094.59;;;26.39;49.98
35704;BME280;21820;51.112;13.762;2023-07-16T02:48:55;99112.09;;;26.47;50.04
35704;BME280;21820;51.112;13.762;2023-07-16T02:51:21;99118.00;;;26.78;52.83
35704;BME280;21820;51.112;13.762;2023-07-16T02:53:46;99147.00;;;26.92;53.25
35704;BME280;21820;51.112;13.762;2023-07-16T02:56:12;99154.84;;;27.01;53.28
35704;BME280;21820;51.112;13.762;2023-07-16T02:58:37;99164.00;;;27.05;53.04
35704;BME280;21820;51.112;13.762;2023-07-16T03:01:02;99172.56;;;27.07;53.49
35704;BME280;21820;51.112;13.762;2023-07-16T03:03:29;99165.63;;;27.06;54.03
35704;BME280;21820;51.112;13.762;2023-07-16T03:05:54;99180.09;;;27.10;54.05
35704;BME280;21820;51.112;13.762;2023-07-16T03:08:19;99169.72;;;27.08;54.09
35704;BME280;21820;51.112;13.762;2023-07-16T03:10:45;99182.75;;;27.10;53.45
35704;BME280;21820;51.112;13.762;2023-07-16T03:13:10;99190.66;;;27.10;53.77
35704;BME280;21820;51.112;13.762;2023-07-16T03:15:35;99200.19;;;27.11;53.78
35704;BME280;21820;51.112;13.762;2023-07-16T03:18:01;99201.22;;;27.10;54.02
35704;BME280;21820;51.112;13.762;2023-07-16T03:20:26;99208.09;;;27.11;53.81
35704;BME280;21820;51.112;13.762;2023-07-16T03:22:52;99207.34;;;26.66;50.44
35704;BME280;21820;51.112;13.762;2023-07-16T03:25:17;99197.59;;;26.52;50.51
35704;BME280;21820;51.112;13.762;2023-07-16T03:27:42;99197.31;;;26.47;49.47
35704;BME280;21820;51.112;13.762;2023-07-16T03:30:08;99212.78;;;26.79;53.39
35704;BME280;21820;51.112;13.762;2023-07-16T03:32:33;99213.97;;;26.91;53.76
35704;BME280;21820;51.112;13.762;2023-07-16T03:34:59;99218.78;;;27.03;53.49
35704;BME280;21820;51.112;13.762;2023-07-16T03:37:24;99230.81;;;27.05;53.29
35704;BME280;21820;51.112;13.762;2023-07-16T03:39:49;99237.50;;;27.08;53.18
35704;BME280;21820;51.112;13.762;2023-07-16T03:42:15;99232.88;;;27.10;53.66
35704;BME280;21820;51.112;13.762;2023-07-16T03:44:40;99235.53;;;27.10;53.66
35704;BME280;21820;51.112;13.762;2023-07-16T03:47:05;99223.94;;;27.11;53.68
35704;BME280;21820;51.112;13.762;2023-07-16T03:49:31;99197.47;;;27.04;53.68
35704;BME280;21820;51.112;13.762;2023-07-16T03:51:56;99180.09;;;27.10;54.22
35704;BME280;21820;51.112;13.762;2023-07-16T03:54:21;99167.53;;;27.12;53.92
35704;BME280;21820;51.112;13.762;2023-07-16T03:56:47;99154.34;;;27.12;54.46
35704;BME280;21820;51.112;13.762;2023-07-16T03:59:12;99175.47;;;27.12;54.35
35704;BME280;21820;51.112;13.762;2023-07-16T04:01:37;99166.06;;;26.73;50.04
35704;BME280;21820;51.112;13.762;2023-07-16T04:04:03;99155.13;;;26.47;50.23
35704;BME280;21820;51.112;13.762;2023-07-16T04:06:28;99138.47;;;26.47;49.99
35704;BME280;21820;51.112;13.762;2023-07-16T04:08:54;99129.50;;;26.70;53.35
35704;BME280;21820;51.112;13.762;2023-07-16T04:11:19;99108.56;;;26.83;53.42
35704;BME280;21820;51.112;13.762;2023-07-16T04:13:44;99108.31;;;27.00;53.55
35704;BME280;21820;51.112;13.762;2023-07-16T04:16:10;99110.22;;;27.06;53.63
35704;BME280;21820;51.112;13.762;2023-07-16T04:18:35;99116.13;;;27.08;53.65
35704;BME280;21820;51.112;13.762;2023-07-16T04:21:00;99105.94;;;27.05;53.71
35704;BME280;21820;51.112;13.762;2023-07-16T04:23:26;99098.28;;;27.10;54.05
35704;BME280;21820;51.112;13.762;2023-07-16T04:25:52;99099.91;;;27.11;53.82
35704;BME280;21820;51.112;13.762;2023-07-16T04:28:18;99099.91;;;27.11;53.93
35704;BME280;21820;51.112;13.762;2023-07-16T04:30:44;99096.28;;;27.12;54.10
35704;BME280;21820;51.112;13.762;2023-07-16T04:33:09;99104.19;;;27.12;53.77
35704;BME280;21820;51.112;13.762;2023-07-16T04:35:35;99112.13;;;27.12;54.50
35704;BME280;21820;51.112;13.762;2023-07-16T04:38:00;99121.66;;;27.13;54.45
35704;BME280;21820;51.112;13.762;2023-07-16T04:40:26;99123.03;;;26.73;51.05
35704;BME280;21820;51.112;13.762;2023-07-16T04:42:51;99108.81;;;26.45;50.03
35704;BME280;21820;51.112;13.762;2023-07-16T04:45:16;99126.31;;;26.46;49.23
35704;BME280;21820;51.112;13.762;2023-07-16T04:47:42;99120.47;;;26.79;53.00
35704;BME280;21820;51.112;13.762;2023-07-16T04:50:07;99123.06;;;26.94;53.55
35704;BME280;21820;51.112;13.762;2023-07-16T04:52:33;99134.34;;;27.03;53.14
35704;BME280;21820;51.112;13.762;2023-07-16T04:54:58;99139.22;;;27.06;53.59
35704;BME280;21820;51.112;13.762;2023-07-16T04:57:23;99136.25;;;27.09;53.66
35704;BME280;21820;51.112;13.762;2023-07-16T04:59:49;99143.97;;;27.10;53.39
35704;BME280;21820;51.112;13.762;2023-07-16T05:02:14;99133.22;;;27.12;53.79
35704;BME280;21820;51.112;13.762;2023-07-16T05:04:42;99121.78;;;27.05;53.79
35704;BME280;21820;51.112;13.762;2023-07-16T05:07:09;99112.13;;;27.12;53.51
35704;BME280;21820;51.112;13.762;2023-07-16T05:09:34;99104.84;;;27.14;54.36
35704;BME280;21820;51.112;13.762;2023-07-16T05:12:00;99097.91;;;27.13;53.69
35704;BME280;21820;51.112;13.762;2023-07-16T05:14:27;99098.72;;;27.13;53.74
35704;BME280;21820;51.112;13.762;2023-07-16T05:16:53;99092.63;;;27.13;54.10
35704;BME280;21820;51.112;13.762;2023-07-16T05:19:18;99074.97;;;26.63;49.78
35704;BME280;21820;51.112;13.762;2023-07-16T05:21:43;99063.56;;;26.56;50.79
35704;BME280;21820;51.112;13.762;2023-07-16T05:24:09;99067.19;;;26.55;50.86
35704;BME280;21820;51.112;13.762;2023-07-16T05:26:34;99078.53;;;26.84;53.65
35704;BME280;21820;51.112;13.762;2023-07-16T05:28:59;99097.13;;;26.98;53.46
35704;BME280;21820;51.112;13.762;2023-07-16T05:31:25;99107.75;;;27.04;53.47
35704;BME280;21820;51.112;13.762;2023-07-16T05:33:50;99100.28;;;27.08;53.57
35704;BME280;21820;51.112;13.762;2023-07-16T05:36:15;99131.75;;;27.09;53.44
35704;BME280;21820;51.112;13.762;2023-07-16T05:38:41;99133.22;;;27.12;54.01
35704;BME280;21820;51.112;13.762;2023-07-16T05:41:06;99132.22;;;27.13;53.84
35704;BME280;21820;51.112;13.762;2023-07-16T05:43:31;99142.78;;;27.13;53.40
35704;BME280;21820;51.112;13.762;2023-07-16T05:45:57;99155.97;;;27.13;53.88
35704;BME280;21820;51.112;13.762;2023-07-16T05:48:24;99147.06;;;27.14;53.84
35704;BME280;21820;51.112;13.762;2023-07-16T05:50:49;99144.50;;;27.06;53.99
35704;BME280;21820;51.112;13.762;2023-07-16T05:53:15;99157.63;;;27.14;54.09
35704;BME280;21820;51.112;13.762;2023-07-16T05:55:40;99149.56;;;27.01;51.85
35704;BME280;21820;51.112;13.762;2023-07-16T05:58:06;99178.00;;;26.61;50.32
35704;BME280;21820;51.112;13.762;2023-07-16T06:00:31;99179.13;;;26.52;50.03
35704;BME280;21820;51.112;13.762;2023-07-16T06:02:57;99184.47;;;26.59;52.75
35704;BME280;21820;51.112;13.762;2023-07-16T06:05:22;99191.44;;;26.89;53.01
35704;BME280;21820;51.112;13.762;2023-07-16T06:07:47;99209.22;;;27.02;53.68
35704;BME280;21820;51.112;13.762;2023-07-16T06:10:13;99248.06;;;27.08;53.61
35704;BME280;21820;51.112;13.762;2023-07-16T06:12:38;99246.91;;;27.10;53.29
35704;BME280;21820;51.112;13.762;2023-07-16T06:15:04;99245.69;;;27.13;53.49
35704;BME280;21820;51.112;13.762;2023-07-16T06:17:32;99233.53;;;27.12;54.03
35704;BME280;21820;51.112;13.762;2023-07-16T06:19:58;99242.69;;;27.16;53.81
35704;BME280;21820;51.112;13.762;2023-07-16T06:22:23;99251.63;;;27.15;53.82
35704;BME280;21820;51.112;13.762;2023-07-16T06:24:48;99249.63;;;27.17;53.70
35704;BME280;21820;51.112;13.762;2023-07-16T06:27:14;99238.25;;;27.16;53.80
35704;BME280;21820;51.112;13.762;2023-07-16T06:29:39;99249.63;;;27.17;53.46
35704;BME280;21820;51.112;13.762;2023-07-16T06:32:05;99257.53;;;27.17;53.91
35704;BME280;21820;51.112;13.762;2023-07-16T06:34:30;99255.00;;;26.79;50.15
35704;BME280;21820;51.112;13.762;2023-07-16T06:36:56;99246.28;;;26.56;49.51
35704;BME280;21820;51.112;13.762;2023-07-16T06:39:21;99247.56;;;26.46;49.56
35704;BME280;21820;51.112;13.762;2023-07-16T06:41:46;99248.81;;;26.72;53.06
35704;BME280;21820;51.112;13.762;2023-07-16T06:44:12;99249.91;;;26.92;53.28
35704;BME280;21820;51.112;13.762;2023-07-16T06:46:37;99252.09;;;27.04;53.55
35704;BME280;21820;51.112;13.762;2023-07-16T06:49:05;99239.16;;;27.09;53.46
35704;BME280;21820;51.112;13.762;2023-07-16T06:51:31;99245.88;;;27.11;53.31
35704;BME280;21820;51.112;13.762;2023-07-16T06:53:57;99242.06;;;27.14;53.71
35704;BME280;21820;51.112;13.762;2023-07-16T06:56:22;99244.53;;;27.15;53.63
35704;BME280;21820;51.112;13.762;2023-07-16T06:58:48;99253.25;;;27.16;53.42
35704;BME280;21820;51.112;13.762;2023-07-16T07:01:14;99236.72;;;27.07;53.80
35704;BME280;21820;51.112;13.762;2023-07-16T07:03:39;99240.06;;;27.16;53.92
35704;BME280;21820;51.112;13.762;2023-07-16T07:06:04;99238.06;;;27.18;53.84
35704;BME280;21820;51.112;13.762;2023-07-16T07:08:30;99242.53;;;27.17;54.16
35704;BME280;21820;51.112;13.762;2023-07-16T07:10:56;99252.25;;;27.17;53.95
35704;BME280;21820;51.112;13.762;2023-07-16T07:13:24;99261.00;;;26.73;50.23
35704;BME280;21820;51.112;13.762;2023-07-16T07:15:49;99247.31;;;26.55;50.23
35704;BME280;21820;51.112;13.762;2023-07-16T07:18:14;99247.69;;;26.52;49.51
35704;BME280;21820;51.112;13.762;2023-07-16T07:20:40;99253.38;;;26.78;52.99
35704;BME280;21820;51.112;13.762;2023-07-16T07:23:05;99251.19;;;26.97;53.32
35704;BME280;21820;51.112;13.762;2023-07-16T07:25:31;99263.25;;;27.06;52.96
35704;BME280;21820;51.112;13.762;2023-07-16T07:27:57;99260.28;;;27.09;53.56
35704;BME280;21820;51.112;13.762;2023-07-16T07:30:22;99260.63;;;27.06;53.20
35704;BME280;21820;51.112;13.762;2023-07-16T07:32:48;99275.38;;;27.15;53.60
35704;BME280;21820;51.112;13.762;2023-07-16T07:35:13;99268.81;;;27.11;53.81
35704;BME280;21820;51.112;13.762;2023-07-16T07:37:38;99283.94;;;27.17;53.24
35704;BME280;21820;51.112;13.762;2023-07-16T07:40:04;99279.56;;;27.09;53.74
35704;BME280;21820;51.112;13.762;2023-07-16T07:42:30;99288.38;;;27.16;53.79
35704;BME280;21820;51.112;13.762;2023-07-16T07:44:55;99300.59;;;27.17;54.10
35704;BME280;21820;51.112;13.762;2023-07-16T07:47:21;99290.03;;;27.17;54.16
35704;BME280;21820;51.112;13.762;2023-07-16T07:49:46;99291.66;;;27.18;53.90
35704;BME280;21820;51.112;13.762;2023-07-16T07:52:11;99294.66;;;26.71;49.96
35704;BME280;21820;51.112;13.762;2023-07-16T07:54:37;99305.31;;;26.55;50.03
35704;BME280;21820;51.112;13.762;2023-07-16T07:57:04;99308.78;;;26.56;49.28
35704;BME280;21820;51.112;13.762;2023-07-16T07:59:29;99311.03;;;26.81;53.69
35704;BME280;21820;51.112;13.762;2023-07-16T08:01:55;99311.69;;;26.98;53.36
35704;BME280;21820;51.112;13.762;2023-07-16T08:04:20;99315.06;;;27.07;52.99
35704;BME280;21820;51.112;13.762;2023-07-16T08:06:46;99296.13;;;27.03;53.03
35704;BME280;21820;51.112;13.762;2023-07-16T08:09:11;99300.16;;;27.14;53.96
35704;BME280;21820;51.112;13.762;2023-07-16T08:11:36;99302.59;;;27.15;53.48
35704;BME280;21820;51.112;13.762;2023-07-16T08:14:02;99311.31;;;27.16;53.70
35704;BME280;21820;51.112;13.762;2023-07-16T08:16:27;99299.03;;;27.08;53.66
35704;BME280;21820;51.112;13.762;2023-07-16T08:18:53;99303.06;;;27.19;53.92
35704;BME280;21820;51.112;13.762;2023-07-16T08:21:18;99298.56;;;27.19;54.07
35704;BME280;21820;51.112;13.762;2023-07-16T08:23:47;99295.13;;;27.19;54.23
35704;BME280;21820;51.112;13.762;2023-07-16T08:26:12;99306.69;;;27.18;54.25
35704;BME280;21820;51.112;13.762;2023-07-16T08:28:38;99313.88;;;27.09;51.22
35704;BME280;21820;51.112;13.762;2023-07-16T08:31:03;99316.09;;;26.68;49.66
35704;BME280;21820;51.112;13.762;2023-07-16T08:33:28;99325.69;;;26.61;50.00
35704;BME280;21820;51.112;13.762;2023-07-16T08:35:54;99321.16;;;26.55;53.12
35704;BME280;21820;51.112;13.762;2023-07-16T08:38:19;99340.44;;;26.93;53.05
35704;BME280;21820;51.112;13.762;2023-07-16T08:40:47;99335.53;;;27.05;53.36
35704;BME280;21820;51.112;13.762;2023-07-16T08:43:12;99345.72;;;27.08;53.40
35704;BME280;21820;51.112;13.762;2023-07-16T08:45:40;99329.50;;;27.11;53.15
35704;BME280;21820;51.112;13.762;2023-07-16T08:48:08;99330.16;;;27.13;53.38
35704;BME280;21820;51.112;13.762;2023-07-16T08:50:35;99336.09;;;27.15;53.82
35704;BME280;21820;51.112;13.762;2023-07-16T08:53:05;99328.91;;;27.09;53.74
35704;BME280;21820;51.112;13.762;2023-07-16T08:55:30;99338.34;;;27.18;53.79
35704;BME280;21820;51.112;13.762;2023-07-16T08:57:57;99348.13;;;27.17;53.56
35704;BME280;21820;51.112;13.762;2023-07-16T09:00:27;99359.47;;;27.18;53.64
35704;BME280;21820;51.112;13.762;2023-07-16T09:02:53;99354.19;;;27.18;53.95
35704;BME280;21820;51.112;13.762;2023-07-16T09:05:20;99355.84;;;27.19;53.76
35704;BME280;21820;51.112;13.762;2023-07-16T09:07:46;99345.31;;;26.67;50.16
35704;BME280;21820;51.112;13.762;2023-07-16T09:10:12;99352.91;;;26.62;49.38
35704;BME280;21820;51.112;13.762;2023-07-16T09:12:45;99360.41;;;26.50;51.42
35704;BME280;21820;51.112;13.762;2023-07-16T09:15:13;99367.53;;;26.87;53.48
35704;BME280;21820;51.112;13.762;2023-07-16T09:17:38;99363.91;;;27.03;53.74
35704;BME280;21820;51.112;13.762;2023-07-16T09:20:04;99367.47;;;27.10;52.93
35704;BME280;21820;51.112;13.762;2023-07-16T09:22:33;99370.75;;;27.12;53.66
35704;BME280;21820;51.112;13.762;2023-07-16T09:25:00;99375.84;;;27.13;53.67
35704;BME280;21820;51.112;13.762;2023-07-16T09:27:29;99374.66;;;27.16;54.16
35704;BME280;21820;51.112;13.762;2023-07-16T09:29:54;99377.31;;;27.16;54.03
35704;BME280;21820;51.112;13.762;2023-07-16T09:32:20;99364.75;;;27.18;54.18
35704;BME280;21820;51.112;13.762;2023-07-16T09:34:49;99369.84;;;27.19;53.91
35704;BME280;21820;51.112;13.762;2023-07-16T09:37:15;99369.22;;;27.17;53.47
35704;BME280;21820;51.112;13.762;2023-07-16T09:39:43;99361.47;;;27.16;54.19
35704;BME280;21820;51.112;13.762;2023-07-16T09:42:11;99372.66;;;27.18;54.13
35704;BME280;21820;51.112;13.762;2023-07-16T09:44:37;99369.84;;;27.05;51.09
35704;BME280;21820;51.112;13.762;2023-07-16T09:47:03;99368.53;;;26.63;49.96
35704;BME280;21820;51.112;13.762;2023-07-16T09:49:29;99364.31;;;26.54;49.80
35704;BME280;21820;51.112;13.762;2023-07-16T09:51:58;99360.22;;;26.74;53.86
35704;BME280;21820;51.112;13.762;2023-07-16T09:54:31;99360.38;;;26.96;53.92
35704;BME280;21820;51.112;13.762;2023-07-16T09:56:58;99353.16;;;27.04;53.64
35704;BME280;21820;51.112;13.762;2023-07-16T09:59:28;99363.22;;;27.09;53.76
35704;BME280;21820;51.112;13.762;2023-07-16T10:01:55;99370.75;;;27.12;53.62
35704;BME280;21820;51.112;13.762;2023-07-16T10:04:21;99361.84;;;27.13;53.37
35704;BME280;21820;51.112;13.762;2023-07-16T10:09:42;99373.31;;;27.20;53.98
35704;BME280;21820;51.112;13.762;2023-07-16T10:14:48;99380.22;;;27.21;54.17
35704;BME280;21820;51.112;13.762;2023-07-16T10:17:22;99388.31;;;27.19;54.56
35704;BME280;21820;51.112;13.762;2023-07-16T10:22:45;99375.78;;;27.21;53.97
35704;BME280;21820;51.112;13.762;2023-07-16T10:27:43;99373.59;;;26.50;49.59
35704;BME280;21820;51.112;13.762;2023-07-16T10:30:08;99382.75;;;26.54;51.81
35704;BME280;21820;51.112;13.762;2023-07-16T10:32:34;99378.91;;;26.87;53.71
35704;BME280;21820;51.112;13.762;2023-07-16T10:35:00;99374.81;;;27.00;53.12
35704;BME280;21820;51.112;13.762;2023-07-16T10:37:26;99385.31;;;27.08;53.39
35704;BME280;21820;51.112;13.762;2023-07-16T10:39:53;99391.88;;;27.12;53.76
35704;BME280;21820;51.112;13.762;2023-07-16T10:42:24;99392.34;;;27.15;53.74
35704;BME280;21820;51.112;13.762;2023-07-16T10:44:51;99388.88;;;27.15;53.85
35704;BME280;21820;51.112;13.762;2023-07-16T10:47:37;99387.34;;;27.20;54.42
35704;BME280;21820;51.112;13.762;2023-07-16T10:50:09;99392.81;;;27.19;54.46
35704;BME280;21820;51.112;13.762;2023-07-16T10:52:35;99386.69;;;27.18;54.33
35704;BME280;21820;51.112;13.762;2023-07-16T10:55:01;99385.88;;;27.18;53.46
35704;BME280;21820;51.112;13.762;2023-07-16T10:57:28;99384.78;;;27.27;53.91
35704;BME280;21820;51.112;13.762;2023-07-16T10:59:55;99371.75;;;27.11;54.08
35704;BME280;21820;51.112;13.762;2023-07-16T11:02:22;99391.09;;;26.88;51.63
35704;BME280;21820;51.112;13.762;2023-07-16T11:04:49;99394.44;;;26.60;50.04
35704;BME280;21820;51.112;13.762;2023-07-16T11:07:15;99393.00;;;26.57;49.88
35704;BME280;21820;51.112;13.762;2023-07-16T11:09:46;99391.53;;;26.77;53.81
35704;BME280;21820;51.112;13.762;2023-07-16T11:12:14;99376.09;;;26.89;53.33
35704;BME280;21820;51.112;13.762;2023-07-16T11:14:51;99385.31;;;27.08;53.67
35704;BME280;21820;51.112;13.762;2023-07-16T11:17:17;99385.50;;;27.21;53.87
35704;BME280;21820;51.112;13.762;2023-07-16T11:19:47;99389.88;;;27.14;53.78
35704;BME280;21820;51.112;13.762;2023-07-16T11:22:13;99387.06;;;27.15;53.20
35704;BME280;21820;51.112;13.762;2023-07-16T11:27:12;99386.88;;;27.17;53.87
35704;BME280;21820;51.112;13.762;2023-07-16T11:29:38;99389.50;;;27.17;53.70
35704;BME280;21820;51.112;13.762;2023-07-16T11:32:05;99390.16;;;27.19;54.17
35704;BME280;21820;51.112;13.762;2023-07-16T11:34:30;99384.88;;;27.19;53.93
35704;BME280;21820;51.112;13.762;2023-07-16T11:37:10;99391.59;;;27.21;53.76
35704;BME280;21820;51.112;13.762;2023-07-16T11:39:35;99396.50;;;27.10;51.96
35704;BME280;21820;51.112;13.762;2023-07-16T11:42:02;99394.41;;;26.68;49.42
35704;BME280;21820;51.112;13.762;2023-07-16T11:44:35;99386.41;;;26.53;49.97
35704;BME280;21820;51.112;13.762;2023-07-16T11:47:01;99380.56;;;26.66;53.73
35704;BME280;21820;51.112;13.762;2023-07-16T11:49:26;99383.47;;;26.93;53.24
35704;BME280;21820;51.112;13.762;2023-07-16T11:51:52;99369.84;;;27.05;53.33
35704;BME280;21820;51.112;13.762;2023-07-16T11:54:17;99369.09;;;27.11;53.34
35704;BME280;21820;51.112;13.762;2023-07-16T11:56:42;99360.19;;;27.12;53.51
35704;BME280;21820;51.112;13.762;2023-07-16T11:59:08;99360.66;;;27.15;53.64
35704;BME280;21820;51.112;13.762;2023-07-16T12:01:33;99365.75;;;27.17;53.42
35704;BME280;21820;51.112;13.762;2023-07-16T12:03:59;99355.47;;;27.07;53.75
35704;BME280;21820;51.112;13.762;2023-07-16T12:06:24;99364.75;;;27.18;53.83
35704;BME280;21820;51.112;13.762;2023-07-16T12:08:49;99365.56;;;27.18;53.92
35704;BME280;21820;51.112;13.762;2023-07-16T12:11:15;99363.75;;;27.19;53.84
35704;BME280;21820;51.112;13.762;2023-07-16T12:13:40;99365.56;;;27.18;54.25
35704;BME280;21820;51.112;13.762;2023-07-16T12:16:05;99361.13;;;27.19;54.07
35704;BME280;21820;51.112;13.762;2023-07-16T12:18:31;99353.72;;;27.00;50.44
35704;BME280;21820;51.112;13.762;2023-07-16T12:20:56;99359.63;;;26.64;50.21
35704;BME280;21820;51.112;13.762;2023-07-16T12:23:22;99354.41;;;26.56;49.76
35704;BME280;21820;51.112;13.762;2023-07-16T12:25:48;99351.03;;;26.70;53.55
35704;BME280;21820;51.112;13.762;2023-07-16T12:28:14;99358.72;;;26.94;53.32
35704;BME280;21820;51.112;13.762;2023-07-16T12:30:40;99355.63;;;27.06;53.18
35704;BME280;21820;51.112;13.762;2023-07-16T12:33:05;99337.00;;;27.07;53.84
35704;BME280;21820;51.112;13.762;2023-07-16T12:35:31;99344.38;;;27.12;54.01
35704;BME280;21820;51.112;13.762;2023-07-16T12:37:56;99342.38;;;27.14;54.06
35704;BME280;21820;51.112;13.762;2023-07-16T12:40:28;99360.66;;;27.15;53.81
35704;BME280;21820;51.112;13.762;2023-07-16T12:42:54;99358.81;;;27.16;53.88
35704;BME280;21820;51.112;13.762;2023-07-16T12:45:19;99352.38;;;27.18;54.25
35704;BME280;21820;51.112;13.762;2023-07-16T12:47:45;99347.47;;;27.15;54.00
35704;BME280;21820;51.112;13.762;2023-07-16T12:50:10;99350.56;;;27.19;54.23
35704;BME280;21820;51.112;13.762;2023-07-16T12:52:35;99353.22;;;27.19;54.22
35704;BME280;21820;51.112;13.762;2023-07-16T12:55:01;99353.22;;;27.19;54.34
35704;BME280;21820;51.112;13.762;2023-07-16T12:57:26;99343.16;;;26.85;51.78
35704;BME280;21820;51.112;13.762;2023-07-16T12:59:51;99352.44;;;26.58;49.68
35704;BME280;21820;51.112;13.762;2023-07-16T13:02:17;99353.75;;;26.54;49.37
35704;BME280;21820;51.112;13.762;2023-07-16T13:04:42;99346.94;;;26.68;53.43
35704;BME280;21820;51.112;13.762;2023-07-16T13:07:07;99355.91;;;26.96;53.23